Gouwestroom — PDGR — position and weather

sailwx.info

Track history (hours):
 
Tides and Currents Weather Stations Pressure Air Temp Water Temp Dewpoint Dewpoint Depression Visibility Wind Speed Wind Dir Waves Ship Positions

Gouwestroom

Last reported at 2016-Apr-28 17:12 UTC. Time now 2016-May-01 13:39 UTC.
Position N 51°49' E 004°53'.

Length 20 m; draft 2.3 m.

Type: Tug. MMSI: 246166000.

Date/timePositionNaut miles runAvg speedWind from/ knotsBaromVisibWave heightAir tempDewpointWater temp
2016-Apr-28 17:12N 51°49' E 004°53'6 1.2
2016-Apr-28 12:13N 51°43' E 004°53'4 5.7
2016-Apr-28 11:33N 51°43' E 004°47'3 3.2
2016-Apr-28 10:33N 51°44' E 004°43'6 5.6
2016-Apr-28 09:31N 51°48' E 004°50'2 2.2
2016-Apr-28 08:33N 51°49' E 004°53'  
2016-Apr-21 06:08N 51°49' E 004°53'0 0.0
2016-Apr-21 05:33N 51°49' E 004°53'0 0.0
2016-Apr-21 04:33N 51°49' E 004°53'0 0.0
2016-Apr-21 03:33N 51°49' E 004°53'0 0.0
2016-Apr-21 02:33N 51°49' E 004°53'0 0.0
2016-Apr-21 01:30N 51°49' E 004°53'0 0.0
2016-Apr-21 00:33N 51°49' E 004°53'0 0.0
2016-Apr-20 23:27N 51°49' E 004°53'0 0.0
2016-Apr-20 22:32N 51°49' E 004°53'0 0.0
2016-Apr-20 21:29N 51°49' E 004°53'0 0.0
2016-Apr-20 20:32N 51°49' E 004°53'0 0.0
2016-Apr-20 19:33N 51°49' E 004°53'0 0.0
2016-Apr-20 18:33N 51°49' E 004°53'0 0.0
2016-Apr-20 17:33N 51°49' E 004°53'0 0.0
2016-Apr-20 16:33N 51°49' E 004°53'0 0.0
2016-Apr-20 15:33N 51°49' E 004°53'0 0.0
2016-Apr-20 13:21N 51°49' E 004°53'15 0.5
2016-Apr-19 09:10N 52°01' E 005°09'4 7.2
2016-Apr-19 08:33N 52°05' E 005°05'10 6.7
2016-Apr-19 07:07N 52°14' E 005°00'4 7.1
2016-Apr-19 06:33N 52°18' E 005°01'6 6.1
2016-Apr-19 05:34N 52°23' E 004°56'7 7.2
2016-Apr-19 04:33N 52°26' E 004°45'6 5.9
2016-Apr-19 03:33N 52°28' E 004°36'2 2.1
2016-Apr-19 02:33N 52°28' E 004°39'0 0.0
2016-Apr-19 01:33N 52°28' E 004°39'0 0.0
2016-Apr-19 00:33N 52°28' E 004°39'0 0.0
2016-Apr-18 23:33N 52°28' E 004°39'0 0.0
2016-Apr-18 22:33N 52°28' E 004°39'0 0.4
2016-Apr-18 21:33N 52°28' E 004°40'5 4.7
2016-Apr-18 20:34N 52°26' E 004°47'5 4.5
2016-Apr-18 19:33N 52°24' E 004°54'4 4.0
2016-Apr-18 18:33N 52°21' E 004°59'5 4.6
2016-Apr-18 17:33N 52°17' E 005°01'  
Track history (hours):
 
Tides and Currents Weather Stations Pressure Air Temp Water Temp Dewpoint Dewpoint Depression Visibility Wind Speed Wind Dir Waves Ship Positions

Gouwestroom

Last reported at 2016-Apr-28 17:12 UTC. Time now 2016-May-01 13:39 UTC.
Position N 51°49' E 004°53'.

Length 20 m; draft 2.3 m.

Type: Tug. MMSI: 246166000.

Date/timePositionNaut miles runAvg speedWind from/ knotsBaromVisibWave heightAir tempDewpointWater temp
2016-Apr-28 17:12N 51°49' E 004°53'6 1.2
2016-Apr-28 12:13N 51°43' E 004°53'4 5.7
2016-Apr-28 11:33N 51°43' E 004°47'3 3.2
2016-Apr-28 10:33N 51°44' E 004°43'6 5.6
2016-Apr-28 09:31N 51°48' E 004°50'2 2.2
2016-Apr-28 08:33N 51°49' E 004°53'  
2016-Apr-21 06:08N 51°49' E 004°53'0 0.0
2016-Apr-21 05:33N 51°49' E 004°53'0 0.0
2016-Apr-21 04:33N 51°49' E 004°53'0 0.0
2016-Apr-21 03:33N 51°49' E 004°53'0 0.0
2016-Apr-21 02:33N 51°49' E 004°53'0 0.0
2016-Apr-21 01:30N 51°49' E 004°53'0 0.0
2016-Apr-21 00:33N 51°49' E 004°53'0 0.0
2016-Apr-20 23:27N 51°49' E 004°53'0 0.0
2016-Apr-20 22:32N 51°49' E 004°53'0 0.0
2016-Apr-20 21:29N 51°49' E 004°53'0 0.0
2016-Apr-20 20:32N 51°49' E 004°53'0 0.0
2016-Apr-20 19:33N 51°49' E 004°53'0 0.0
2016-Apr-20 18:33N 51°49' E 004°53'0 0.0
2016-Apr-20 17:33N 51°49' E 004°53'0 0.0
2016-Apr-20 16:33N 51°49' E 004°53'0 0.0
2016-Apr-20 15:33N 51°49' E 004°53'0 0.0
2016-Apr-20 13:21N 51°49' E 004°53'15 0.5
2016-Apr-19 09:10N 52°01' E 005°09'4 7.2
2016-Apr-19 08:33N 52°05' E 005°05'10 6.7
2016-Apr-19 07:07N 52°14' E 005°00'4 7.1
2016-Apr-19 06:33N 52°18' E 005°01'6 6.1
2016-Apr-19 05:34N 52°23' E 004°56'7 7.2
2016-Apr-19 04:33N 52°26' E 004°45'6 5.9
2016-Apr-19 03:33N 52°28' E 004°36'2 2.1
2016-Apr-19 02:33N 52°28' E 004°39'0 0.0
2016-Apr-19 01:33N 52°28' E 004°39'0 0.0
2016-Apr-19 00:33N 52°28' E 004°39'0 0.0
2016-Apr-18 23:33N 52°28' E 004°39'0 0.0
2016-Apr-18 22:33N 52°28' E 004°39'0 0.4
2016-Apr-18 21:33N 52°28' E 004°40'5 4.7
2016-Apr-18 20:34N 52°26' E 004°47'5 4.5
2016-Apr-18 19:33N 52°24' E 004°54'4 4.0
2016-Apr-18 18:33N 52°21' E 004°59'5 4.6
2016-Apr-18 17:33N 52°17' E 005°01'  

Dump ship's entire track history